createdAt,value
2023-05-02T00:03:56.316Z,12.81
2023-05-02T00:08:58.426Z,12.70
2023-05-02T00:14:00.572Z,12.79
2023-05-02T00:19:02.210Z,12.70
2023-05-02T00:24:04.231Z,12.74
2023-05-02T00:29:05.935Z,12.70
2023-05-02T00:34:07.778Z,12.67
2023-05-02T00:39:09.812Z,12.65
2023-05-02T00:44:11.447Z,12.78
2023-05-02T00:49:13.093Z,12.59
2023-05-02T00:54:15.037Z,12.57
2023-05-02T00:59:17.858Z,12.63
2023-05-02T01:04:25.668Z,12.69
2023-05-02T01:09:59.430Z,12.57
2023-05-02T01:15:07.764Z,12.49
2023-05-02T01:20:14.424Z,12.60
2023-05-02T01:25:30.408Z,12.65
2023-05-02T01:30:36.546Z,12.54
2023-05-02T01:35:38.861Z,12.71
2023-05-02T01:40:44.805Z,12.81
2023-05-02T01:45:50.778Z,12.75
2023-05-02T01:50:54.754Z,12.73
2023-05-02T01:55:59.574Z,12.67
2023-05-02T02:01:01.796Z,12.56
2023-05-02T02:06:04.921Z,12.59
2023-05-02T02:11:11.884Z,12.45
2023-05-02T02:16:15.053Z,12.48
2023-05-02T02:21:19.587Z,12.55
2023-05-02T02:26:22.632Z,12.54
2023-05-02T02:31:25.855Z,12.73
2023-05-02T02:36:42.949Z,12.56
2023-05-02T02:42:05.444Z,12.60
2023-05-02T02:47:18.885Z,12.81
2023-05-02T02:52:56.080Z,12.88
2023-05-02T02:58:09.899Z,12.98
2023-05-02T03:03:14.322Z,13.01
2023-05-02T03:08:16.135Z,12.86
2023-05-02T03:13:18.013Z,12.86
2023-05-02T03:18:22.225Z,12.85
2023-05-02T03:23:28.795Z,12.59
2023-05-02T03:28:30.722Z,12.56
2023-05-02T03:33:33.691Z,12.38
2023-05-02T03:38:35.742Z,12.43
2023-05-02T03:43:41.332Z,12.20
2023-05-02T03:48:43.165Z,12.24
2023-05-02T03:53:46.455Z,12.12
2023-05-02T03:58:48.734Z,12.13
2023-05-02T04:03:54.843Z,11.79
2023-05-02T04:08:59.562Z,11.93
2023-05-02T04:14:07.756Z,11.70
2023-05-02T04:19:10.851Z,11.77
2023-05-02T04:24:14.108Z,11.98
2023-05-02T04:29:15.904Z,11.97
2023-05-02T04:34:18.596Z,12.01
2023-05-02T04:39:21.072Z,11.86
2023-05-02T04:44:35.095Z,12.09
2023-05-02T04:49:36.811Z,12.07
2023-05-02T04:54:38.474Z,12.17
2023-05-02T04:59:40.152Z,12.09
2023-05-02T05:04:42.622Z,12.40
2023-05-02T05:09:44.571Z,12.47
2023-05-02T05:14:46.466Z,12.55
2023-05-02T05:19:48.806Z,12.57
2023-05-02T05:24:54.633Z,12.48
2023-05-02T05:29:59.472Z,12.57
2023-05-02T05:35:02.177Z,12.47
2023-05-02T05:40:04.667Z,12.77
2023-05-02T05:45:07.233Z,12.68
2023-05-02T05:50:09.565Z,13.08
2023-05-02T05:55:12.239Z,13.16
2023-05-02T06:00:17.956Z,13.21
2023-05-02T06:05:29.480Z,13.27
2023-05-02T06:10:32.039Z,13.69
2023-05-02T06:15:35.297Z,13.67
2023-05-02T06:20:39.657Z,13.79
2023-05-02T06:25:41.553Z,13.59
2023-05-02T06:30:43.728Z,14.07
2023-05-02T06:35:51.507Z,14.20
2023-05-02T06:40:53.517Z,14.21
2023-05-02T06:45:58.827Z,14.23
2023-05-02T06:51:01.444Z,14.13
2023-05-02T06:56:03.500Z,14.28
2023-05-02T07:01:05.227Z,14.13
2023-05-02T07:06:06.944Z,14.27
2023-05-02T07:11:08.625Z,14.36
2023-05-02T07:16:10.419Z,14.27
2023-05-02T07:21:13.100Z,14.82
2023-05-02T07:26:14.755Z,14.58
2023-05-02T07:31:18.702Z,14.23
2023-05-02T07:36:21.758Z,13.96
2023-05-02T07:41:23.398Z,14.26
2023-05-02T07:46:25.077Z,13.90
2023-05-02T07:51:26.893Z,13.92
2023-05-02T07:56:28.597Z,13.93
2023-05-02T08:01:30.172Z,13.91
2023-05-02T08:06:34.698Z,13.86
2023-05-02T08:11:36.454Z,14.45
2023-05-02T08:16:38.172Z,15.14
2023-05-02T08:21:40.019Z,15.10
2023-05-02T08:26:41.650Z,15.33
2023-05-02T08:31:43.449Z,15.60
2023-05-02T08:36:45.201Z,15.34
2023-05-02T08:41:46.902Z,14.94
2023-05-02T08:46:51.030Z,14.82
2023-05-02T08:51:55.375Z,15.41
2023-05-02T08:56:59.497Z,15.19
2023-05-02T09:02:12.256Z,15.38
2023-05-02T09:07:16.539Z,15.45
2023-05-02T09:12:25.352Z,15.54
2023-05-02T09:17:27.005Z,15.44
2023-05-02T09:22:28.719Z,15.45
2023-05-02T09:27:30.682Z,15.60
2023-05-02T09:32:51.044Z,15.79
2023-05-02T09:37:54.779Z,15.64
2023-05-02T09:42:56.700Z,16.17
2023-05-02T09:48:02.413Z,16.32
2023-05-02T09:53:09.501Z,16.27
2023-05-02T09:58:25.653Z,16.27
2023-05-02T10:03:28.916Z,15.69
2023-05-02T10:08:33.497Z,15.51
2023-05-02T10:13:39.464Z,15.49
2023-05-02T10:18:48.429Z,15.55
2023-05-02T10:23:53.212Z,15.69
2023-05-02T10:28:56.595Z,15.46
2023-05-02T10:33:59.906Z,15.64
2023-05-02T10:39:02.883Z,15.74
2023-05-02T10:44:07.761Z,16.00
2023-05-02T10:49:13.733Z,15.73
2023-05-02T10:54:18.655Z,15.55
2023-05-02T10:59:28.703Z,15.52
2023-05-02T11:05:04.210Z,15.37
2023-05-02T11:10:18.290Z,15.64
2023-05-02T11:15:28.836Z,15.80
2023-05-02T11:20:32.308Z,16.10
2023-05-02T11:25:38.599Z,16.74
2023-05-02T11:30:45.276Z,17.41
2023-05-02T11:35:47.962Z,17.42
2023-05-02T11:41:00.179Z,17.35
2023-05-02T11:46:02.590Z,16.68
2023-05-02T11:51:07.043Z,16.96
2023-05-02T11:56:09.081Z,17.40
2023-05-02T12:01:15.697Z,17.46
2023-05-02T12:06:23.383Z,18.01
2023-05-02T12:11:25.242Z,17.58
2023-05-02T12:16:26.931Z,16.65
2023-05-02T12:21:35.754Z,16.24
2023-05-02T12:26:37.450Z,16.67
2023-05-02T12:31:39.998Z,17.08
2023-05-02T12:36:47.600Z,17.63
2023-05-02T12:41:49.192Z,17.81
2023-05-02T12:47:00.993Z,17.58
2023-05-02T12:52:02.839Z,17.11
2023-05-02T12:57:04.582Z,17.04
2023-05-02T13:02:06.300Z,17.17
2023-05-02T13:07:08.044Z,17.97
2023-05-02T13:12:09.983Z,18.06
2023-05-02T13:17:12.017Z,17.91
2023-05-02T13:22:13.753Z,18.10
2023-05-02T13:27:15.475Z,17.79
2023-05-02T13:32:17.088Z,17.62
2023-05-02T13:37:18.713Z,17.56
2023-05-02T13:42:20.334Z,17.26
2023-05-02T13:47:22.440Z,16.93
2023-05-02T13:52:24.058Z,16.56
2023-05-02T13:57:25.673Z,16.18
2023-05-02T14:02:27.572Z,16.12
2023-05-02T14:07:29.570Z,16.37
2023-05-02T14:12:31.695Z,16.64
2023-05-02T14:17:33.447Z,17.13
2023-05-02T14:22:35.017Z,16.90
2023-05-02T14:27:36.679Z,16.74
2023-05-02T14:32:38.446Z,16.79
2023-05-02T14:37:40.197Z,16.25
2023-05-02T14:42:42.648Z,15.98
2023-05-02T14:47:44.443Z,15.25
2023-05-02T14:52:48.971Z,14.48
2023-05-02T14:57:50.620Z,14.26
2023-05-02T15:02:52.510Z,13.91
2023-05-02T15:07:54.768Z,13.79
2023-05-02T15:12:56.970Z,13.50
2023-05-02T15:17:58.650Z,13.69
2023-05-02T15:23:07.346Z,13.65
2023-05-02T15:28:09.200Z,13.66
2023-05-02T15:33:12.499Z,13.60
2023-05-02T15:38:14.330Z,13.72
2023-05-02T15:43:15.944Z,13.73
2023-05-02T15:48:20.297Z,13.76
2023-05-02T15:53:25.281Z,13.78
2023-05-02T15:58:26.900Z,13.89
2023-05-02T16:03:32.153Z,13.73
2023-05-02T16:08:37.082Z,13.61
2023-05-02T16:13:38.824Z,13.39
2023-05-02T16:18:44.405Z,13.21
2023-05-02T16:23:46.240Z,13.08
2023-05-02T16:28:47.860Z,12.93
2023-05-02T16:33:50.860Z,13.21
2023-05-02T16:38:52.468Z,12.99
2023-05-02T16:43:54.067Z,12.92
2023-05-02T16:48:55.877Z,13.02
2023-05-02T16:53:57.507Z,12.88
2023-05-02T16:58:59.339Z,12.73
2023-05-02T17:04:01.079Z,12.84
2023-05-02T17:09:03.735Z,12.84
2023-05-02T17:14:05.477Z,12.87
2023-05-02T17:19:07.672Z,12.62
2023-05-02T17:24:09.396Z,12.65
2023-05-02T17:29:11.015Z,12.79
2023-05-02T17:34:12.880Z,12.58
2023-05-02T17:39:15.896Z,12.53
2023-05-02T17:44:17.677Z,12.54
2023-05-02T17:49:19.396Z,12.43
2023-05-02T17:54:21.206Z,12.46
2023-05-02T17:59:22.996Z,12.25
2023-05-02T18:04:25.424Z,12.15
2023-05-02T18:09:27.064Z,12.03
2023-05-02T18:14:28.619Z,12.02
2023-05-02T18:19:30.275Z,11.94
2023-05-02T18:24:32.712Z,11.85
2023-05-02T18:29:37.482Z,11.85
2023-05-02T18:34:39.319Z,11.91
2023-05-02T18:39:41.071Z,11.60
2023-05-02T18:44:42.698Z,11.67
2023-05-02T18:49:44.564Z,11.72
2023-05-02T18:54:47.549Z,11.53
2023-05-02T18:59:49.238Z,11.33
2023-05-02T19:04:53.670Z,11.56
2023-05-02T19:09:55.330Z,11.51
2023-05-02T19:14:56.949Z,11.50
2023-05-02T19:19:58.557Z,11.32
2023-05-02T19:25:00.854Z,11.22
2023-05-02T19:30:04.157Z,11.21
2023-05-02T19:35:07.130Z,11.27
2023-05-02T19:40:10.816Z,11.23
2023-05-02T19:45:13.808Z,11.11
2023-05-02T19:50:15.735Z,11.06
2023-05-02T19:55:18.458Z,10.83
2023-05-02T20:00:20.202Z,10.70
2023-05-02T20:05:21.819Z,10.52
2023-05-02T20:10:23.509Z,10.25
2023-05-02T20:15:25.906Z,10.29
2023-05-02T20:20:28.727Z,10.02
2023-05-02T20:25:30.386Z,10.11
2023-05-02T20:30:32.356Z,10.04
2023-05-02T20:35:34.104Z,9.99
2023-05-02T20:40:39.205Z,10.08
2023-05-02T20:45:40.855Z,10.16
2023-05-02T20:50:42.593Z,10.08
2023-05-02T20:55:44.188Z,10.30
2023-05-02T21:00:52.153Z,10.06
2023-05-02T21:05:56.658Z,10.15
2023-05-02T21:10:58.299Z,10.09
2023-05-02T21:15:59.910Z,10.20
2023-05-02T21:21:01.596Z,10.50
2023-05-02T21:26:03.951Z,10.49
2023-05-02T21:31:07.309Z,10.08
2023-05-02T21:36:09.354Z,10.19
2023-05-02T21:41:10.965Z,10.45
2023-05-02T21:46:12.662Z,10.30
2023-05-02T21:51:14.398Z,10.14
2023-05-02T21:56:15.998Z,10.37
2023-05-02T22:01:18.098Z,10.06
2023-05-02T22:06:19.742Z,9.95
2023-05-02T22:11:21.793Z,10.07
2023-05-02T22:16:23.937Z,9.82
2023-05-02T22:21:25.855Z,9.93
2023-05-02T22:26:27.484Z,10.02
2023-05-02T22:31:29.235Z,9.96
2023-05-02T22:36:31.190Z,9.73
2023-05-02T22:41:32.768Z,10.04
2023-05-02T22:46:34.632Z,10.06
2023-05-02T22:51:39.972Z,10.16
2023-05-02T22:56:41.629Z,9.92
2023-05-02T23:01:43.247Z,9.77
2023-05-02T23:06:45.322Z,9.98
2023-05-02T23:11:46.922Z,10.06
2023-05-02T23:16:49.896Z,10.10
2023-05-02T23:21:51.674Z,9.87
2023-05-02T23:26:53.342Z,9.89
2023-05-02T23:31:55.609Z,9.96
2023-05-02T23:36:57.287Z,10.03
2023-05-02T23:41:58.966Z,9.81
2023-05-02T23:47:00.654Z,9.72
2023-05-02T23:52:02.770Z,9.72
2023-05-02T23:57:04.548Z,9.51
